AirNav   Everest Fuels
 
 497 users online  

PA56 UPMC Passavant Cranberry Heliport
Cranberry, Pennsylvania, USA

GOING TO CRANBERRY?


FAA INFORMATION EFFECTIVE 15 JULY 2021

Location

FAA Identifier: PA56
Lat/Long: 40-41-01.4800N 080-05-49.6200W
40-41.024667N 080-05.827000W
40.6837444,-80.0971167
(estimated)
Elevation: 1100 ft. / 335 m (estimated)
Variation: 09W (2005)
From city: 2 miles S of CRANBERRY, PA
Time zone: UTC -4 (UTC -5 during Standard Time)
Zip code: 16066

Heliport Operations

Heliport use: Private use, MEDICAL
Activation date: 02/1989
Control tower: no
ARTCC: CLEVELAND CENTER
FSS: ALTOONA FLIGHT SERVICE STATION
NOTAMs facility: FDC (NOTAM-D service not available)
Attendance: UNATNDD
Wind indicator: yes
Segmented circle: no
Lights: FOR PERIMETER LGTS CALL 412-622-4343.

Heliport Communications

PITTSBURGH APPROACH: 126.725
PITTSBURGH DEPARTURE: 126.725
WX AWOS-3PT at PJC (8 nm N): 118.45 (724-452-5304)
WX AWOS-3PT at BTP (9 nm NE): 121.450 (724-586-6434)
WX ASOS at PIT (13 nm SW): PHONE 412-472-0145
WX AWOS-A at 42PN (14 nm S): PHONE 412-442-2213
WX AWOS-3PT at BVI (14 nm W): 118.35 (724-843-1024)
  • APCH/DEP SVC PRVDD BY PITTSBURGH INTL ATCT (PIT) 126.725/291.650.

Nearby radio navigation aids

VOR radial/distance  VOR name  Freq  Var
EWCr156/9.9ELLWOOD CITY VOR/DME115.8008W
AGCr003/24.4ALLEGHENY VOR/DME110.0009W
HLGr047/33.3WHEELING VOR/DME112.2007W

 
NDB name  Hdg/Dist  Freq  Var  ID
CASTLE154/25.027209WUCP ..- -.-. .--.

Heliport Services

Runway Information

Helipad H1

Dimensions: 60 x 60 ft. / 18 x 18 m
Surface: concrete, in fair condition
Runway edge lights: PERI
Latitude: 40-41.024667N
Longitude: 080-05.827000W
Elevation: 1100.0 ft.
Traffic pattern: leftleft
Markings: none, in fair condition

Heliport Ownership and Management from official FAA records

Ownership: Privately-owned
Owner: U OF PITTSBURGH MEDICAL CENTER
200 LOTHROP ST
PITTSBURGH, PA 15213
Phone 412-647-8762
Manager: DIRECTOR OF MAINTENANCE
1 ST FRANCIS WAY, UPMC PASSAVANT CRANBERRY HOSPITAL
CRANBERRY TWP, PA 16066
Phone 724-772-5300

Heliport Operational Statistics

Aircraft based on the field: 2
Multi engine airplanes: 1
Helicopters: 1
    

Additional Remarks

A52-H1 HIGH TENSION WIRES NEAR PAD IN E/W DIRECTION MARKED WITH ORANGE MARKERS.
FOR CD CTC PITTSBURGH APCH AT 412-472-5591

Instrument Procedures

There are no published instrument procedures at PA56.

Some nearby airports with instrument procedures:

KPJC - Zelienople Municipal Airport (8 nm N)
KBTP - Pittsburgh/Butler Regional Airport (9 nm NE)
KPIT - Pittsburgh International Airport (13 nm SW)
KBVI - Beaver County Airport (14 nm W)
KAGC - Allegheny County Airport (21 nm S)
 
Loc | Ops | Rwys | IFR | FBO | Links
Com | Nav | Svcs | Stats | Notes
Area around PA56 (UPMC Passavant Cranberry Heliport)
 
Road maps at: MapQuest Bing Google
 
Aerial photo
No photo
 
Sectional chart

 
Airport distance calculator
Flying to UPMC Passavant Cranberry Heliport? Find the distance to fly.

From to PA56

Sunrise and sunset
Times for 31-Jul-2021
 Local
(UTC-4)
 Zulu
(UTC)
Morning civil twilight05:4609:46
Sunrise06:1710:17
Sunset20:3600:36
Evening civil twilight21:0701:07

Current date and time
Zulu (UTC)  31-Jul-2021 06:32:47
Local (UTC-4)  31-Jul-2021 02:32:47
 
METAR
KPJC 
8nm N 
310035Z AUTO 32003KT 7SM +RA CLR 18/11 A3005 RMK AO2
KBTP 
8nm NE 
310556Z AUTO 00000KT 10SM CLR 12/11 A3008 RMK AO2 SLP186 T01220111 10200 20117 50003
KPIT 
13nm SW 
310551Z 00000KT 10SM BKN220 17/11 A3007 RMK AO2 SLP183 T01670111 10222 20156 50004
KBVI 
15nm W 
310035Z AUTO 34006KT 10SM CLR 19/12 A3007 RMK AO2 T01870121
TAF
KPIT 
13nm SW 
310520Z 3106/0112 35006KT P6SM BKN250 FM311300 VRB05KT P6SM SKC
KBVI 
15nm W 
310520Z 3106/0106 35006KT P6SM BKN250 FM311300 VRB05KT P6SM SKC
NOTAMs
Click for the latest NOTAMs
NOTAMs are issued by the DoD/FAA and will open in a separate window not controlled by AirNav.

 

 
 

Would you like to see your business listed on this page?

 If your business provides an interesting product or service to pilots, flight crews, aircraft, or users of the UPMC Passavant Cranberry Heliport, you should consider listing it here.  To start the listing process, click on the button below
 
Add a business
 

Other Pages about UPMC Passavant Cranberry Heliport

Update a link
 
Copyright © AirNav, LLC. All rights reserved. Privacy Policy  Contact